sensor_id;sensor_type;location;lat;lon;timestamp;P1;durP1;ratioP1;P2;durP2;ratioP2
32096;SDS011;18610;49.916;8.284;2022-12-07T00:01:51;25.42;;;13.82;;
32096;SDS011;18610;49.916;8.284;2022-12-07T00:04:17;51.78;;;20.25;;
32096;SDS011;18610;49.916;8.284;2022-12-07T00:06:47;34.25;;;18.33;;
32096;SDS011;18610;49.916;8.284;2022-12-07T00:09:17;23.95;;;12.38;;
32096;SDS011;18610;49.916;8.284;2022-12-07T00:11:45;26.67;;;11.63;;
32096;SDS011;18610;49.916;8.284;2022-12-07T00:14:15;21.00;;;11.93;;
32096;SDS011;18610;49.916;8.284;2022-12-07T00:16:42;19.65;;;10.77;;
32096;SDS011;18610;49.916;8.284;2022-12-07T00:19:10;19.25;;;10.55;;
32096;SDS011;18610;49.916;8.284;2022-12-07T00:21:39;18.33;;;10.32;;
32096;SDS011;18610;49.916;8.284;2022-12-07T00:24:07;20.15;;;11.25;;
32096;SDS011;18610;49.916;8.284;2022-12-07T00:26:36;18.83;;;10.55;;
32096;SDS011;18610;49.916;8.284;2022-12-07T00:29:05;18.23;;;10.10;;
32096;SDS011;18610;49.916;8.284;2022-12-07T00:31:34;19.42;;;10.02;;
32096;SDS011;18610;49.916;8.284;2022-12-07T00:34:04;18.00;;;10.40;;
32096;SDS011;18610;49.916;8.284;2022-12-07T00:36:31;19.65;;;10.35;;
32096;SDS011;18610;49.916;8.284;2022-12-07T00:38:59;22.08;;;10.55;;
32096;SDS011;18610;49.916;8.284;2022-12-07T00:41:28;16.75;;;9.27;;
32096;SDS011;18610;49.916;8.284;2022-12-07T00:43:55;21.02;;;10.68;;
32096;SDS011;18610;49.916;8.284;2022-12-07T00:46:23;25.52;;;10.23;;
32096;SDS011;18610;49.916;8.284;2022-12-07T00:48:50;17.80;;;10.40;;
32096;SDS011;18610;49.916;8.284;2022-12-07T00:51:18;18.25;;;9.50;;
32096;SDS011;18610;49.916;8.284;2022-12-07T00:53:46;16.58;;;9.95;;
32096;SDS011;18610;49.916;8.284;2022-12-07T00:56:14;22.42;;;10.48;;
32096;SDS011;18610;49.916;8.284;2022-12-07T00:58:43;15.77;;;10.35;;
32096;SDS011;18610;49.916;8.284;2022-12-07T01:01:15;20.40;;;9.75;;
32096;SDS011;18610;49.916;8.284;2022-12-07T01:03:41;18.30;;;9.60;;
32096;SDS011;18610;49.916;8.284;2022-12-07T01:06:08;17.55;;;9.43;;
32096;SDS011;18610;49.916;8.284;2022-12-07T01:08:35;16.92;;;9.20;;
32096;SDS011;18610;49.916;8.284;2022-12-07T01:11:02;16.85;;;10.35;;
32096;SDS011;18610;49.916;8.284;2022-12-07T01:13:31;19.95;;;9.55;;
32096;SDS011;18610;49.916;8.284;2022-12-07T01:16:01;15.55;;;8.80;;
32096;SDS011;18610;49.916;8.284;2022-12-07T01:18:31;19.15;;;10.32;;
32096;SDS011;18610;49.916;8.284;2022-12-07T01:21:00;17.52;;;9.27;;
32096;SDS011;18610;49.916;8.284;2022-12-07T01:23:27;21.95;;;10.80;;
32096;SDS011;18610;49.916;8.284;2022-12-07T01:25:55;19.05;;;10.35;;
32096;SDS011;18610;49.916;8.284;2022-12-07T01:28:22;15.38;;;9.27;;
32096;SDS011;18610;49.916;8.284;2022-12-07T01:30:56;16.95;;;9.23;;
32096;SDS011;18610;49.916;8.284;2022-12-07T01:33:29;17.08;;;9.43;;
32096;SDS011;18610;49.916;8.284;2022-12-07T01:36:00;16.27;;;9.27;;
32096;SDS011;18610;49.916;8.284;2022-12-07T01:38:29;18.50;;;9.55;;
32096;SDS011;18610;49.916;8.284;2022-12-07T01:40:56;17.27;;;9.27;;
32096;SDS011;18610;49.916;8.284;2022-12-07T01:43:23;16.38;;;9.27;;
32096;SDS011;18610;49.916;8.284;2022-12-07T01:45:52;19.17;;;9.73;;
32096;SDS011;18610;49.916;8.284;2022-12-07T01:48:22;17.90;;;9.35;;
32096;SDS011;18610;49.916;8.284;2022-12-07T01:50:52;16.35;;;9.05;;
32096;SDS011;18610;49.916;8.284;2022-12-07T01:53:20;18.45;;;10.25;;
32096;SDS011;18610;49.916;8.284;2022-12-07T01:55:50;18.48;;;10.35;;
32096;SDS011;18610;49.916;8.284;2022-12-07T01:58:19;18.25;;;9.30;;
32096;SDS011;18610;49.916;8.284;2022-12-07T02:00:47;17.67;;;9.55;;
32096;SDS011;18610;49.916;8.284;2022-12-07T02:03:15;16.63;;;9.45;;
32096;SDS011;18610;49.916;8.284;2022-12-07T02:05:47;17.30;;;9.50;;
32096;SDS011;18610;49.916;8.284;2022-12-07T02:08:15;15.95;;;9.00;;
32096;SDS011;18610;49.916;8.284;2022-12-07T02:10:43;19.30;;;9.00;;
32096;SDS011;18610;49.916;8.284;2022-12-07T02:13:11;16.88;;;9.20;;
32096;SDS011;18610;49.916;8.284;2022-12-07T02:15:44;15.80;;;8.95;;
32096;SDS011;18610;49.916;8.284;2022-12-07T02:18:25;16.27;;;9.30;;
32096;SDS011;18610;49.916;8.284;2022-12-07T02:21:05;14.90;;;8.18;;
32096;SDS011;18610;49.916;8.284;2022-12-07T02:23:43;16.25;;;9.30;;
32096;SDS011;18610;49.916;8.284;2022-12-07T02:26:38;13.57;;;9.02;;
32096;SDS011;18610;49.916;8.284;2022-12-07T02:29:21;14.45;;;8.48;;
32096;SDS011;18610;49.916;8.284;2022-12-07T02:34:22;20.92;;;8.98;;
32096;SDS011;18610;49.916;8.284;2022-12-07T02:36:57;18.63;;;9.25;;
32096;SDS011;18610;49.916;8.284;2022-12-07T02:39:33;17.67;;;9.90;;
32096;SDS011;18610;49.916;8.284;2022-12-07T02:42:09;16.95;;;9.30;;
32096;SDS011;18610;49.916;8.284;2022-12-07T02:44:41;15.13;;;8.73;;
32096;SDS011;18610;49.916;8.284;2022-12-07T02:47:10;19.25;;;9.07;;
32096;SDS011;18610;49.916;8.284;2022-12-07T02:49:40;22.77;;;9.80;;
32096;SDS011;18610;49.916;8.284;2022-12-07T02:52:08;15.27;;;8.07;;
32096;SDS011;18610;49.916;8.284;2022-12-07T02:54:35;16.25;;;8.32;;
32096;SDS011;18610;49.916;8.284;2022-12-07T02:57:04;16.10;;;8.98;;
32096;SDS011;18610;49.916;8.284;2022-12-07T02:59:44;16.15;;;8.30;;
32096;SDS011;18610;49.916;8.284;2022-12-07T03:02:22;14.52;;;8.32;;
32096;SDS011;18610;49.916;8.284;2022-12-07T03:04:59;14.95;;;8.85;;
32096;SDS011;18610;49.916;8.284;2022-12-07T03:07:41;13.80;;;7.88;;
32096;SDS011;18610;49.916;8.284;2022-12-07T03:10:16;13.77;;;8.02;;
32096;SDS011;18610;49.916;8.284;2022-12-07T03:12:50;15.35;;;8.07;;
32096;SDS011;18610;49.916;8.284;2022-12-07T03:15:26;14.38;;;7.18;;
32096;SDS011;18610;49.916;8.284;2022-12-07T03:17:55;12.98;;;7.22;;
32096;SDS011;18610;49.916;8.284;2022-12-07T03:20:25;17.23;;;9.50;;
32096;SDS011;18610;49.916;8.284;2022-12-07T03:22:53;13.45;;;8.00;;
32096;SDS011;18610;49.916;8.284;2022-12-07T03:25:21;17.35;;;8.75;;
32096;SDS011;18610;49.916;8.284;2022-12-07T03:27:49;19.95;;;10.13;;
32096;SDS011;18610;49.916;8.284;2022-12-07T03:30:21;14.80;;;7.57;;
32096;SDS011;18610;49.916;8.284;2022-12-07T03:32:52;13.95;;;7.30;;
32096;SDS011;18610;49.916;8.284;2022-12-07T03:35:25;11.05;;;7.10;;
32096;SDS011;18610;49.916;8.284;2022-12-07T03:37:56;12.75;;;7.00;;
32096;SDS011;18610;49.916;8.284;2022-12-07T03:40:27;19.55;;;8.38;;
32096;SDS011;18610;49.916;8.284;2022-12-07T03:42:59;13.65;;;7.53;;
32096;SDS011;18610;49.916;8.284;2022-12-07T03:45:29;14.95;;;8.43;;
32096;SDS011;18610;49.916;8.284;2022-12-07T03:48:02;16.63;;;8.47;;
32096;SDS011;18610;49.916;8.284;2022-12-07T03:50:36;15.30;;;8.13;;
32096;SDS011;18610;49.916;8.284;2022-12-07T03:53:15;11.98;;;7.00;;
32096;SDS011;18610;49.916;8.284;2022-12-07T03:55:47;16.05;;;8.32;;
32096;SDS011;18610;49.916;8.284;2022-12-07T03:58:17;18.50;;;7.88;;
32096;SDS011;18610;49.916;8.284;2022-12-07T04:00:46;13.80;;;7.60;;
32096;SDS011;18610;49.916;8.284;2022-12-07T04:03:16;14.45;;;7.18;;
32096;SDS011;18610;49.916;8.284;2022-12-07T04:05:43;18.17;;;8.05;;
32096;SDS011;18610;49.916;8.284;2022-12-07T04:08:10;14.45;;;7.47;;
32096;SDS011;18610;49.916;8.284;2022-12-07T04:10:37;12.38;;;7.70;;
32096;SDS011;18610;49.916;8.284;2022-12-07T04:13:04;12.90;;;6.93;;
32096;SDS011;18610;49.916;8.284;2022-12-07T04:15:31;13.20;;;7.45;;
32096;SDS011;18610;49.916;8.284;2022-12-07T04:17:58;15.40;;;8.02;;
32096;SDS011;18610;49.916;8.284;2022-12-07T04:20:26;17.60;;;8.55;;
32096;SDS011;18610;49.916;8.284;2022-12-07T04:22:53;17.08;;;8.75;;
32096;SDS011;18610;49.916;8.284;2022-12-07T04:25:20;15.48;;;8.48;;
32096;SDS011;18610;49.916;8.284;2022-12-07T04:27:47;16.55;;;9.57;;
32096;SDS011;18610;49.916;8.284;2022-12-07T04:30:14;24.40;;;13.38;;
32096;SDS011;18610;49.916;8.284;2022-12-07T04:32:41;46.20;;;22.13;;
32096;SDS011;18610;49.916;8.284;2022-12-07T04:35:08;58.25;;;27.98;;
32096;SDS011;18610;49.916;8.284;2022-12-07T04:37:37;15.27;;;10.05;;
32096;SDS011;18610;49.916;8.284;2022-12-07T04:40:05;21.05;;;9.38;;
32096;SDS011;18610;49.916;8.284;2022-12-07T04:42:33;18.20;;;10.65;;
32096;SDS011;18610;49.916;8.284;2022-12-07T04:45:00;15.95;;;9.88;;
32096;SDS011;18610;49.916;8.284;2022-12-07T04:47:27;15.75;;;9.77;;
32096;SDS011;18610;49.916;8.284;2022-12-07T04:49:53;20.63;;;10.25;;
32096;SDS011;18610;49.916;8.284;2022-12-07T04:52:20;22.88;;;11.07;;
32096;SDS011;18610;49.916;8.284;2022-12-07T04:54:48;19.67;;;10.48;;
32096;SDS011;18610;49.916;8.284;2022-12-07T04:57:15;15.40;;;10.07;;
32096;SDS011;18610;49.916;8.284;2022-12-07T04:59:42;19.73;;;10.35;;
32096;SDS011;18610;49.916;8.284;2022-12-07T05:02:09;15.05;;;9.80;;
32096;SDS011;18610;49.916;8.284;2022-12-07T05:04:35;19.50;;;10.60;;
32096;SDS011;18610;49.916;8.284;2022-12-07T05:07:02;19.60;;;10.73;;
32096;SDS011;18610;49.916;8.284;2022-12-07T05:09:29;21.45;;;11.48;;
32096;SDS011;18610;49.916;8.284;2022-12-07T05:11:57;20.02;;;11.13;;
32096;SDS011;18610;49.916;8.284;2022-12-07T05:14:24;17.48;;;10.05;;
32096;SDS011;18610;49.916;8.284;2022-12-07T05:16:51;21.42;;;11.30;;
32096;SDS011;18610;49.916;8.284;2022-12-07T05:19:19;22.30;;;11.48;;
32096;SDS011;18610;49.916;8.284;2022-12-07T05:21:45;16.35;;;10.00;;
32096;SDS011;18610;49.916;8.284;2022-12-07T05:24:13;20.15;;;10.63;;
32096;SDS011;18610;49.916;8.284;2022-12-07T05:26:41;22.50;;;13.43;;
32096;SDS011;18610;49.916;8.284;2022-12-07T05:29:11;20.85;;;10.82;;
32096;SDS011;18610;49.916;8.284;2022-12-07T05:31:39;16.67;;;9.85;;
32096;SDS011;18610;49.916;8.284;2022-12-07T05:34:06;15.25;;;9.57;;
32096;SDS011;18610;49.916;8.284;2022-12-07T05:36:33;17.38;;;10.40;;
32096;SDS011;18610;49.916;8.284;2022-12-07T05:39:00;20.95;;;10.50;;
32096;SDS011;18610;49.916;8.284;2022-12-07T05:41:27;21.13;;;11.13;;
32096;SDS011;18610;49.916;8.284;2022-12-07T05:44:13;17.83;;;9.65;;
32096;SDS011;18610;49.916;8.284;2022-12-07T05:46:40;17.80;;;10.35;;
32096;SDS011;18610;49.916;8.284;2022-12-07T05:49:06;15.90;;;9.82;;
32096;SDS011;18610;49.916;8.284;2022-12-07T05:51:33;15.98;;;10.00;;
32096;SDS011;18610;49.916;8.284;2022-12-07T05:54:00;22.77;;;9.98;;
32096;SDS011;18610;49.916;8.284;2022-12-07T05:56:26;16.90;;;10.15;;
32096;SDS011;18610;49.916;8.284;2022-12-07T05:58:53;17.80;;;10.00;;
32096;SDS011;18610;49.916;8.284;2022-12-07T06:01:39;17.58;;;10.40;;
32096;SDS011;18610;49.916;8.284;2022-12-07T06:04:06;19.58;;;11.82;;
32096;SDS011;18610;49.916;8.284;2022-12-07T06:06:33;16.10;;;10.45;;
32096;SDS011;18610;49.916;8.284;2022-12-07T06:09:00;17.95;;;11.55;;
32096;SDS011;18610;49.916;8.284;2022-12-07T06:11:27;20.40;;;12.00;;
32096;SDS011;18610;49.916;8.284;2022-12-07T06:14:11;18.65;;;11.23;;
32096;SDS011;18610;49.916;8.284;2022-12-07T06:16:40;23.13;;;11.57;;
32096;SDS011;18610;49.916;8.284;2022-12-07T06:19:06;17.52;;;10.57;;
32096;SDS011;18610;49.916;8.284;2022-12-07T06:21:33;19.55;;;11.65;;
32096;SDS011;18610;49.916;8.284;2022-12-07T06:24:00;21.08;;;11.75;;
32096;SDS011;18610;49.916;8.284;2022-12-07T06:26:27;20.27;;;12.25;;
32096;SDS011;18610;49.916;8.284;2022-12-07T06:28:53;22.98;;;11.27;;
32096;SDS011;18610;49.916;8.284;2022-12-07T06:31:20;21.88;;;12.80;;
32096;SDS011;18610;49.916;8.284;2022-12-07T06:33:49;27.17;;;13.60;;
32096;SDS011;18610;49.916;8.284;2022-12-07T06:36:16;28.13;;;12.60;;
32096;SDS011;18610;49.916;8.284;2022-12-07T06:38:42;19.00;;;11.95;;
32096;SDS011;18610;49.916;8.284;2022-12-07T06:41:09;24.05;;;11.80;;
32096;SDS011;18610;49.916;8.284;2022-12-07T06:43:36;20.33;;;12.68;;
32096;SDS011;18610;49.916;8.284;2022-12-07T06:46:03;27.08;;;13.50;;
32096;SDS011;18610;49.916;8.284;2022-12-07T06:48:30;28.15;;;13.00;;
32096;SDS011;18610;49.916;8.284;2022-12-07T06:50:58;23.50;;;12.98;;
32096;SDS011;18610;49.916;8.284;2022-12-07T06:53:25;24.70;;;13.50;;
32096;SDS011;18610;49.916;8.284;2022-12-07T06:55:52;28.52;;;15.60;;
32096;SDS011;18610;49.916;8.284;2022-12-07T06:58:19;34.55;;;18.35;;
32096;SDS011;18610;49.916;8.284;2022-12-07T07:00:47;29.15;;;16.65;;
32096;SDS011;18610;49.916;8.284;2022-12-07T07:03:14;36.45;;;20.13;;
32096;SDS011;18610;49.916;8.284;2022-12-07T07:05:41;44.30;;;21.73;;
32096;SDS011;18610;49.916;8.284;2022-12-07T07:08:09;50.35;;;24.20;;
32096;SDS011;18610;49.916;8.284;2022-12-07T07:10:36;55.63;;;27.67;;
32096;SDS011;18610;49.916;8.284;2022-12-07T07:13:04;48.47;;;26.80;;
32096;SDS011;18610;49.916;8.284;2022-12-07T07:15:31;59.88;;;32.08;;
32096;SDS011;18610;49.916;8.284;2022-12-07T07:17:58;61.25;;;30.30;;
32096;SDS011;18610;49.916;8.284;2022-12-07T07:20:25;43.50;;;21.90;;
32096;SDS011;18610;49.916;8.284;2022-12-07T07:22:53;44.45;;;23.63;;
32096;SDS011;18610;49.916;8.284;2022-12-07T07:25:22;52.80;;;28.55;;
32096;SDS011;18610;49.916;8.284;2022-12-07T07:27:49;56.53;;;29.23;;
32096;SDS011;18610;49.916;8.284;2022-12-07T07:30:15;62.00;;;31.90;;
32096;SDS011;18610;49.916;8.284;2022-12-07T07:32:42;47.60;;;26.08;;
32096;SDS011;18610;49.916;8.284;2022-12-07T07:35:09;45.95;;;24.73;;
32096;SDS011;18610;49.916;8.284;2022-12-07T07:37:36;26.60;;;15.63;;
32096;SDS011;18610;49.916;8.284;2022-12-07T07:40:03;52.78;;;25.48;;
32096;SDS011;18610;49.916;8.284;2022-12-07T07:42:32;36.10;;;19.52;;
32096;SDS011;18610;49.916;8.284;2022-12-07T07:44:59;26.00;;;15.65;;
32096;SDS011;18610;49.916;8.284;2022-12-07T07:47:25;29.13;;;16.13;;
32096;SDS011;18610;49.916;8.284;2022-12-07T07:49:54;25.50;;;14.50;;
32096;SDS011;18610;49.916;8.284;2022-12-07T07:52:20;25.77;;;14.15;;
32096;SDS011;18610;49.916;8.284;2022-12-07T07:54:47;25.60;;;14.43;;
32096;SDS011;18610;49.916;8.284;2022-12-07T07:57:14;22.52;;;13.88;;
32096;SDS011;18610;49.916;8.284;2022-12-07T07:59:43;22.52;;;13.18;;
32096;SDS011;18610;49.916;8.284;2022-12-07T08:02:11;26.27;;;14.60;;
32096;SDS011;18610;49.916;8.284;2022-12-07T08:04:40;25.75;;;12.70;;
32096;SDS011;18610;49.916;8.284;2022-12-07T08:07:07;25.15;;;13.38;;
32096;SDS011;18610;49.916;8.284;2022-12-07T08:09:34;24.83;;;12.73;;
32096;SDS011;18610;49.916;8.284;2022-12-07T08:12:01;24.13;;;13.00;;
32096;SDS011;18610;49.916;8.284;2022-12-07T08:14:28;23.75;;;13.73;;
32096;SDS011;18610;49.916;8.284;2022-12-07T08:16:56;25.92;;;14.45;;
32096;SDS011;18610;49.916;8.284;2022-12-07T08:19:23;29.70;;;16.67;;
32096;SDS011;18610;49.916;8.284;2022-12-07T08:21:51;34.50;;;17.60;;
32096;SDS011;18610;49.916;8.284;2022-12-07T08:24:17;37.95;;;18.50;;
32096;SDS011;18610;49.916;8.284;2022-12-07T08:26:44;36.13;;;18.90;;
32096;SDS011;18610;49.916;8.284;2022-12-07T08:29:11;28.77;;;16.40;;
32096;SDS011;18610;49.916;8.284;2022-12-07T08:31:38;23.88;;;13.68;;
32096;SDS011;18610;49.916;8.284;2022-12-07T08:34:06;22.08;;;13.15;;
32096;SDS011;18610;49.916;8.284;2022-12-07T08:36:33;28.00;;;15.23;;
32096;SDS011;18610;49.916;8.284;2022-12-07T08:39:00;20.85;;;12.23;;
32096;SDS011;18610;49.916;8.284;2022-12-07T08:41:27;26.35;;;14.77;;
32096;SDS011;18610;49.916;8.284;2022-12-07T08:43:53;44.42;;;21.65;;
32096;SDS011;18610;49.916;8.284;2022-12-07T08:46:21;42.25;;;20.95;;
32096;SDS011;18610;49.916;8.284;2022-12-07T08:48:52;39.47;;;21.30;;
32096;SDS011;18610;49.916;8.284;2022-12-07T08:51:25;23.77;;;14.90;;
32096;SDS011;18610;49.916;8.284;2022-12-07T08:53:52;23.90;;;13.77;;
32096;SDS011;18610;49.916;8.284;2022-12-07T08:56:22;26.50;;;13.93;;
32096;SDS011;18610;49.916;8.284;2022-12-07T08:58:49;23.52;;;13.13;;
32096;SDS011;18610;49.916;8.284;2022-12-07T09:01:16;24.80;;;13.63;;
32096;SDS011;18610;49.916;8.284;2022-12-07T09:03:42;25.40;;;14.32;;
32096;SDS011;18610;49.916;8.284;2022-12-07T09:06:09;25.88;;;14.15;;
32096;SDS011;18610;49.916;8.284;2022-12-07T09:08:38;24.02;;;14.30;;
32096;SDS011;18610;49.916;8.284;2022-12-07T09:11:10;21.95;;;13.50;;
32096;SDS011;18610;49.916;8.284;2022-12-07T09:13:37;36.47;;;15.23;;
32096;SDS011;18610;49.916;8.284;2022-12-07T09:16:04;26.45;;;14.13;;
32096;SDS011;18610;49.916;8.284;2022-12-07T09:18:31;26.88;;;14.23;;
32096;SDS011;18610;49.916;8.284;2022-12-07T09:20:58;22.77;;;14.23;;
32096;SDS011;18610;49.916;8.284;2022-12-07T09:23:25;25.20;;;14.43;;
32096;SDS011;18610;49.916;8.284;2022-12-07T09:25:53;27.27;;;12.85;;
32096;SDS011;18610;49.916;8.284;2022-12-07T09:28:20;29.83;;;13.60;;
32096;SDS011;18610;49.916;8.284;2022-12-07T09:30:47;27.92;;;14.15;;
32096;SDS011;18610;49.916;8.284;2022-12-07T09:33:15;22.33;;;13.55;;
32096;SDS011;18610;49.916;8.284;2022-12-07T09:35:44;24.88;;;13.75;;
32096;SDS011;18610;49.916;8.284;2022-12-07T09:38:10;29.05;;;13.90;;
32096;SDS011;18610;49.916;8.284;2022-12-07T09:40:38;24.92;;;13.00;;
32096;SDS011;18610;49.916;8.284;2022-12-07T09:43:10;23.83;;;13.27;;
32096;SDS011;18610;49.916;8.284;2022-12-07T09:45:39;23.95;;;13.30;;
32096;SDS011;18610;49.916;8.284;2022-12-07T09:48:08;22.67;;;12.45;;
32096;SDS011;18610;49.916;8.284;2022-12-07T09:50:42;22.00;;;11.68;;
32096;SDS011;18610;49.916;8.284;2022-12-07T09:53:09;26.85;;;12.25;;
32096;SDS011;18610;49.916;8.284;2022-12-07T09:55:41;19.85;;;11.45;;
32096;SDS011;18610;49.916;8.284;2022-12-07T09:58:12;19.83;;;11.13;;
32096;SDS011;18610;49.916;8.284;2022-12-07T10:00:46;23.58;;;11.65;;
32096;SDS011;18610;49.916;8.284;2022-12-07T10:03:14;21.58;;;11.10;;
32096;SDS011;18610;49.916;8.284;2022-12-07T10:05:42;20.27;;;11.20;;
32096;SDS011;18610;49.916;8.284;2022-12-07T10:08:11;25.15;;;12.18;;
32096;SDS011;18610;49.916;8.284;2022-12-07T10:10:40;26.83;;;13.02;;
32096;SDS011;18610;49.916;8.284;2022-12-07T10:13:08;20.40;;;11.48;;
32096;SDS011;18610;49.916;8.284;2022-12-07T10:18:27;20.45;;;10.40;;
32096;SDS011;18610;49.916;8.284;2022-12-07T10:21:00;20.70;;;9.65;;
32096;SDS011;18610;49.916;8.284;2022-12-07T10:25:55;21.58;;;9.27;;
32096;SDS011;18610;49.916;8.284;2022-12-07T10:28:22;17.42;;;8.20;;
32096;SDS011;18610;49.916;8.284;2022-12-07T10:30:51;15.00;;;7.65;;
32096;SDS011;18610;49.916;8.284;2022-12-07T10:33:34;21.05;;;6.97;;
32096;SDS011;18610;49.916;8.284;2022-12-07T10:36:15;11.15;;;6.18;;
32096;SDS011;18610;49.916;8.284;2022-12-07T10:38:45;14.63;;;6.33;;
32096;SDS011;18610;49.916;8.284;2022-12-07T10:41:13;17.60;;;5.55;;
32096;SDS011;18610;49.916;8.284;2022-12-07T10:43:46;14.82;;;5.32;;
32096;SDS011;18610;49.916;8.284;2022-12-07T10:46:26;10.07;;;4.57;;
32096;SDS011;18610;49.916;8.284;2022-12-07T10:49:10;13.77;;;4.50;;
32096;SDS011;18610;49.916;8.284;2022-12-07T10:51:58;11.93;;;4.65;;
32096;SDS011;18610;49.916;8.284;2022-12-07T10:54:32;13.13;;;4.30;;
32096;SDS011;18610;49.916;8.284;2022-12-07T10:57:11;12.77;;;4.95;;
32096;SDS011;18610;49.916;8.284;2022-12-07T11:00:07;8.63;;;4.30;;
32096;SDS011;18610;49.916;8.284;2022-12-07T11:02:51;6.68;;;3.58;;
32096;SDS011;18610;49.916;8.284;2022-12-07T11:05:48;11.65;;;3.47;;
32096;SDS011;18610;49.916;8.284;2022-12-07T11:08:21;11.30;;;3.53;;
32096;SDS011;18610;49.916;8.284;2022-12-07T11:11:04;6.50;;;3.13;;
32096;SDS011;18610;49.916;8.284;2022-12-07T11:16:19;5.97;;;2.95;;
32096;SDS011;18610;49.916;8.284;2022-12-07T11:19:06;7.38;;;2.38;;
32096;SDS011;18610;49.916;8.284;2022-12-07T11:21:51;9.18;;;2.13;;
32096;SDS011;18610;49.916;8.284;2022-12-07T11:24:24;6.80;;;2.45;;
32096;SDS011;18610;49.916;8.284;2022-12-07T11:27:02;7.72;;;2.63;;
32096;SDS011;18610;49.916;8.284;2022-12-07T11:29:46;8.52;;;3.72;;
32096;SDS011;18610;49.916;8.284;2022-12-07T11:32:39;6.30;;;2.20;;
32096;SDS011;18610;49.916;8.284;2022-12-07T11:35:26;6.25;;;2.85;;
32096;SDS011;18610;49.916;8.284;2022-12-07T11:38:07;5.07;;;1.90;;
32096;SDS011;18610;49.916;8.284;2022-12-07T11:40:37;5.38;;;2.05;;
32096;SDS011;18610;49.916;8.284;2022-12-07T11:43:09;6.78;;;2.05;;
32096;SDS011;18610;49.916;8.284;2022-12-07T11:45:42;6.00;;;2.40;;
32096;SDS011;18610;49.916;8.284;2022-12-07T11:48:12;4.95;;;2.33;;
32096;SDS011;18610;49.916;8.284;2022-12-07T11:50:44;10.88;;;2.00;;
32096;SDS011;18610;49.916;8.284;2022-12-07T11:53:16;7.00;;;2.22;;
32096;SDS011;18610;49.916;8.284;2022-12-07T11:55:48;5.22;;;2.42;;
32096;SDS011;18610;49.916;8.284;2022-12-07T11:58:34;8.05;;;2.85;;
32096;SDS011;18610;49.916;8.284;2022-12-07T12:01:11;6.82;;;2.58;;
32096;SDS011;18610;49.916;8.284;2022-12-07T12:03:46;7.63;;;2.38;;
32096;SDS011;18610;49.916;8.284;2022-12-07T12:06:14;7.80;;;2.45;;
32096;SDS011;18610;49.916;8.284;2022-12-07T12:08:43;8.05;;;2.75;;
32096;SDS011;18610;49.916;8.284;2022-12-07T12:11:19;10.88;;;2.65;;
32096;SDS011;18610;49.916;8.284;2022-12-07T12:16:55;4.93;;;1.60;;
32096;SDS011;18610;49.916;8.284;2022-12-07T12:19:40;8.02;;;1.88;;
32096;SDS011;18610;49.916;8.284;2022-12-07T12:22:10;3.05;;;1.63;;
32096;SDS011;18610;49.916;8.284;2022-12-07T12:24:42;7.55;;;2.47;;
32096;SDS011;18610;49.916;8.284;2022-12-07T12:27:23;3.63;;;1.58;;
32096;SDS011;18610;49.916;8.284;2022-12-07T12:29:54;5.35;;;1.83;;
32096;SDS011;18610;49.916;8.284;2022-12-07T12:32:23;11.60;;;2.28;;
32096;SDS011;18610;49.916;8.284;2022-12-07T12:35:19;8.27;;;2.00;;
32096;SDS011;18610;49.916;8.284;2022-12-07T12:37:49;6.38;;;2.70;;
32096;SDS011;18610;49.916;8.284;2022-12-07T12:40:39;8.73;;;2.03;;
32096;SDS011;18610;49.916;8.284;2022-12-07T12:46:37;3.05;;;1.90;;
32096;SDS011;18610;49.916;8.284;2022-12-07T12:55:15;6.03;;;1.70;;
32096;SDS011;18610;49.916;8.284;2022-12-07T13:00:35;2.90;;;1.42;;
32096;SDS011;18610;49.916;8.284;2022-12-07T13:05:48;2.85;;;1.58;;
32096;SDS011;18610;49.916;8.284;2022-12-07T13:08:45;12.70;;;3.53;;
32096;SDS011;18610;49.916;8.284;2022-12-07T13:11:16;8.43;;;3.33;;
32096;SDS011;18610;49.916;8.284;2022-12-07T13:13:45;8.25;;;2.55;;
32096;SDS011;18610;49.916;8.284;2022-12-07T13:22:34;11.10;;;6.10;;
32096;SDS011;18610;49.916;8.284;2022-12-07T13:25:18;7.72;;;2.33;;
32096;SDS011;18610;49.916;8.284;2022-12-07T13:27:56;6.57;;;2.20;;
32096;SDS011;18610;49.916;8.284;2022-12-07T13:30:27;6.55;;;2.80;;
32096;SDS011;18610;49.916;8.284;2022-12-07T13:32:57;3.47;;;1.85;;
32096;SDS011;18610;49.916;8.284;2022-12-07T13:35:28;7.45;;;1.85;;
32096;SDS011;18610;49.916;8.284;2022-12-07T13:38:00;5.15;;;1.73;;
32096;SDS011;18610;49.916;8.284;2022-12-07T13:40:30;9.27;;;1.70;;
32096;SDS011;18610;49.916;8.284;2022-12-07T13:42:57;5.32;;;3.20;;
32096;SDS011;18610;49.916;8.284;2022-12-07T13:45:26;7.75;;;3.03;;
32096;SDS011;18610;49.916;8.284;2022-12-07T13:48:09;5.35;;;2.15;;
32096;SDS011;18610;49.916;8.284;2022-12-07T13:50:41;6.63;;;2.40;;
32096;SDS011;18610;49.916;8.284;2022-12-07T13:53:11;4.47;;;1.80;;
32096;SDS011;18610;49.916;8.284;2022-12-07T13:55:44;6.15;;;2.40;;
32096;SDS011;18610;49.916;8.284;2022-12-07T13:58:11;5.53;;;2.00;;
32096;SDS011;18610;49.916;8.284;2022-12-07T14:00:39;7.22;;;2.03;;
32096;SDS011;18610;49.916;8.284;2022-12-07T14:03:23;2.90;;;1.70;;
32096;SDS011;18610;49.916;8.284;2022-12-07T14:09:06;4.38;;;1.55;;
32096;SDS011;18610;49.916;8.284;2022-12-07T14:11:34;3.58;;;1.50;;
32096;SDS011;18610;49.916;8.284;2022-12-07T14:14:01;8.45;;;2.38;;
32096;SDS011;18610;49.916;8.284;2022-12-07T14:16:31;7.90;;;2.83;;
32096;SDS011;18610;49.916;8.284;2022-12-07T14:19:02;5.28;;;1.83;;
32096;SDS011;18610;49.916;8.284;2022-12-07T14:21:30;9.75;;;4.45;;
32096;SDS011;18610;49.916;8.284;2022-12-07T14:24:02;20.38;;;8.43;;
32096;SDS011;18610;49.916;8.284;2022-12-07T14:26:42;11.68;;;4.38;;
32096;SDS011;18610;49.916;8.284;2022-12-07T14:29:20;12.60;;;5.57;;
32096;SDS011;18610;49.916;8.284;2022-12-07T14:31:48;4.60;;;2.10;;
32096;SDS011;18610;49.916;8.284;2022-12-07T14:34:16;3.75;;;1.17;;
32096;SDS011;18610;49.916;8.284;2022-12-07T14:36:46;7.90;;;1.70;;
32096;SDS011;18610;49.916;8.284;2022-12-07T14:39:13;4.60;;;1.35;;
32096;SDS011;18610;49.916;8.284;2022-12-07T14:41:39;5.78;;;1.45;;
32096;SDS011;18610;49.916;8.284;2022-12-07T14:44:19;4.85;;;1.80;;
32096;SDS011;18610;49.916;8.284;2022-12-07T14:46:47;3.60;;;1.45;;
32096;SDS011;18610;49.916;8.284;2022-12-07T14:49:14;5.50;;;1.92;;
32096;SDS011;18610;49.916;8.284;2022-12-07T14:51:42;4.63;;;1.48;;
32096;SDS011;18610;49.916;8.284;2022-12-07T14:54:12;4.15;;;1.80;;
32096;SDS011;18610;49.916;8.284;2022-12-07T14:56:41;4.22;;;2.70;;
32096;SDS011;18610;49.916;8.284;2022-12-07T14:59:08;12.93;;;3.10;;
32096;SDS011;18610;49.916;8.284;2022-12-07T15:01:36;3.63;;;2.05;;
32096;SDS011;18610;49.916;8.284;2022-12-07T15:04:02;4.50;;;2.17;;
32096;SDS011;18610;49.916;8.284;2022-12-07T15:06:29;10.70;;;1.95;;
32096;SDS011;18610;49.916;8.284;2022-12-07T15:08:57;5.05;;;1.88;;
32096;SDS011;18610;49.916;8.284;2022-12-07T15:11:24;7.15;;;1.27;;
32096;SDS011;18610;49.916;8.284;2022-12-07T15:13:51;9.75;;;1.63;;
32096;SDS011;18610;49.916;8.284;2022-12-07T15:16:38;6.38;;;1.88;;
32096;SDS011;18610;49.916;8.284;2022-12-07T15:19:09;3.13;;;1.75;;
32096;SDS011;18610;49.916;8.284;2022-12-07T15:21:39;4.57;;;1.83;;
32096;SDS011;18610;49.916;8.284;2022-12-07T15:24:07;5.90;;;2.08;;
32096;SDS011;18610;49.916;8.284;2022-12-07T15:26:35;10.23;;;2.28;;
32096;SDS011;18610;49.916;8.284;2022-12-07T15:29:02;8.13;;;2.83;;